createdAt,value
2022-09-05T00:03:06.792Z,17.61
2022-09-05T00:06:10.398Z,17.68
2022-09-05T00:09:18.896Z,17.58
2022-09-05T00:12:23.246Z,17.45
2022-09-05T00:15:36.286Z,17.33
2022-09-05T00:24:25.765Z,17.28
2022-09-05T00:24:33.004Z,17.48
2022-09-05T00:26:05.560Z,17.44
2022-09-05T00:29:20.364Z,17.54
2022-09-05T00:32:59.071Z,17.48
2022-09-05T00:36:20.097Z,17.44
2022-09-05T00:39:25.669Z,17.48
2022-09-05T00:42:27.471Z,17.48
2022-09-05T00:45:35.338Z,17.24
2022-09-05T00:48:46.368Z,17.49
2022-09-05T00:51:54.280Z,17.38
2022-09-05T00:55:10.749Z,17.19
2022-09-05T00:58:34.096Z,17.19
2022-09-05T01:01:41.936Z,17.19
2022-09-05T01:04:51.662Z,17.13
2022-09-05T01:08:13.075Z,16.91
2022-09-05T01:11:28.637Z,17.11
2022-09-05T01:14:43.903Z,17.09
2022-09-05T01:18:00.293Z,17.17
2022-09-05T01:21:21.120Z,17.21
2022-09-05T01:24:40.924Z,17.12
2022-09-05T01:29:14.555Z,17.01
2022-09-05T01:31:26.423Z,17.15
2022-09-05T01:34:37.238Z,17.33
2022-09-05T01:37:45.165Z,17.25
2022-09-05T01:41:18.814Z,17.46
2022-09-05T01:44:30.395Z,17.54
2022-09-05T01:47:46.645Z,17.26
2022-09-05T01:50:59.854Z,17.27
2022-09-05T01:54:25.082Z,17.23
2022-09-05T01:57:40.100Z,17.14
2022-09-05T02:00:55.761Z,17.10
2022-09-05T02:04:34.573Z,17.04
2022-09-05T02:08:09.586Z,17.06
2022-09-05T02:11:12.442Z,16.91
2022-09-05T02:14:33.822Z,17.08
2022-09-05T02:17:51.795Z,17.13
2022-09-05T02:20:56.926Z,17.27
2022-09-05T02:24:09.851Z,17.21
2022-09-05T02:27:47.561Z,17.14
2022-09-05T02:31:18.915Z,17.03
2022-09-05T02:34:22.846Z,16.88
2022-09-05T02:39:24.060Z,16.85
2022-09-05T02:45:18.725Z,16.80
2022-09-05T02:45:24.051Z,16.80
2022-09-05T02:47:58.067Z,16.83
2022-09-05T02:57:27.444Z,16.99
2022-09-05T02:57:38.162Z,17.11
2022-09-05T02:58:20.547Z,16.90
2022-09-05T03:01:36.530Z,16.79
2022-09-05T03:04:47.421Z,16.81
2022-09-05T03:08:13.293Z,16.60
2022-09-05T03:12:27.146Z,16.77
2022-09-05T03:15:59.334Z,16.82
2022-09-05T03:19:47.012Z,16.81
2022-09-05T03:23:50.299Z,16.69
2022-09-05T03:27:20.394Z,16.56
2022-09-05T03:30:42.470Z,16.64
2022-09-05T03:34:00.113Z,16.45
2022-09-05T03:37:44.400Z,16.44
2022-09-05T03:41:06.825Z,16.41
2022-09-05T03:44:32.357Z,16.46
2022-09-05T03:47:53.991Z,16.29
2022-09-05T03:57:12.568Z,16.36
2022-09-05T03:57:13.502Z,16.26
2022-09-05T03:58:57.964Z,16.25
2022-09-05T04:04:28.839Z,16.26
2022-09-05T04:08:18.262Z,16.23
2022-09-05T04:09:03.672Z,16.01
2022-09-05T04:12:16.198Z,15.88
2022-09-05T04:15:31.037Z,16.06
2022-09-05T04:18:39.188Z,16.05
2022-09-05T04:21:47.036Z,16.06
2022-09-05T04:24:57.362Z,15.94
2022-09-05T04:28:19.504Z,15.81
2022-09-05T04:31:30.919Z,15.93
2022-09-05T04:34:45.063Z,15.94
2022-09-05T04:37:55.288Z,16.10
2022-09-05T04:41:00.510Z,16.06
2022-09-05T04:44:08.495Z,16.13
2022-09-05T04:47:16.285Z,15.93
2022-09-05T04:50:23.623Z,15.77
2022-09-05T04:53:47.905Z,16.10
2022-09-05T04:56:54.956Z,16.16
2022-09-05T05:05:23.673Z,16.18
2022-09-05T05:06:16.122Z,16.13
2022-09-05T05:07:06.117Z,15.99
2022-09-05T05:13:28.277Z,15.98
2022-09-05T05:17:57.804Z,16.07
2022-09-05T05:18:07.037Z,15.99
2022-09-05T05:20:44.050Z,16.13
2022-09-05T05:23:50.920Z,16.28
2022-09-05T05:27:00.198Z,16.23
2022-09-05T05:30:04.825Z,16.31
2022-09-05T05:33:18.991Z,16.42
2022-09-05T05:36:25.668Z,16.32
2022-09-05T05:39:29.202Z,16.33
2022-09-05T05:42:31.671Z,16.19
2022-09-05T05:45:33.972Z,16.29
2022-09-05T05:48:38.411Z,16.27
2022-09-05T05:52:02.647Z,16.18
2022-09-05T05:55:50.573Z,16.28
2022-09-05T05:59:08.559Z,16.42
2022-09-05T06:03:13.620Z,16.33
2022-09-05T06:06:36.782Z,16.40
2022-09-05T06:14:51.552Z,16.36
2022-09-05T06:14:57.621Z,16.32
2022-09-05T06:17:44.323Z,16.64
2022-09-05T06:22:05.954Z,16.70
2022-09-05T06:25:16.430Z,16.93
2022-09-05T06:28:30.533Z,17.00
2022-09-05T06:31:44.853Z,17.09
2022-09-05T06:35:07.776Z,17.16
2022-09-05T06:38:22.019Z,17.06
2022-09-05T06:41:36.799Z,17.20
2022-09-05T06:44:55.785Z,17.36
2022-09-05T06:48:14.484Z,17.43
2022-09-05T06:51:49.765Z,17.63
2022-09-05T06:55:33.993Z,17.96
2022-09-05T06:59:15.254Z,18.20
2022-09-05T07:02:46.384Z,18.39
2022-09-05T07:05:55.735Z,18.50
2022-09-05T07:09:05.644Z,18.47
2022-09-05T07:12:18.193Z,18.44
2022-09-05T07:15:35.086Z,18.33
2022-09-05T07:18:45.414Z,18.41
2022-09-05T07:21:58.933Z,18.43
2022-09-05T07:25:06.492Z,18.50
2022-09-05T07:28:28.175Z,18.66
2022-09-05T07:31:37.511Z,18.72
2022-09-05T07:34:45.812Z,18.77
2022-09-05T07:37:56.698Z,19.26
2022-09-05T07:41:04.056Z,19.39
2022-09-05T07:44:10.901Z,19.54
2022-09-05T07:47:20.546Z,19.50
2022-09-05T07:52:09.404Z,19.75
2022-09-05T07:57:01.035Z,19.85
2022-09-05T07:57:25.519Z,19.80
2022-09-05T08:00:31.155Z,19.78
2022-09-05T08:03:33.919Z,19.96
2022-09-05T08:07:49.562Z,20.01
2022-09-05T08:10:09.221Z,20.17
2022-09-05T08:13:23.773Z,20.31
2022-09-05T08:16:28.762Z,20.61
2022-09-05T08:19:40.539Z,20.73
2022-09-05T08:22:52.200Z,21.00
2022-09-05T08:25:59.952Z,21.30
2022-09-05T08:29:11.150Z,21.12
2022-09-05T08:32:15.942Z,21.11
2022-09-05T08:35:26.603Z,21.12
2022-09-05T08:38:37.437Z,21.02
2022-09-05T08:42:03.487Z,21.33
2022-09-05T08:46:40.995Z,21.41
2022-09-05T08:49:11.253Z,21.48
2022-09-05T08:52:24.289Z,21.54
2022-09-05T08:55:39.461Z,21.91
2022-09-05T08:59:28.335Z,22.08
2022-09-05T09:02:50.743Z,22.05
2022-09-05T09:06:18.056Z,22.19
2022-09-05T09:09:34.265Z,22.33
2022-09-05T09:13:03.768Z,22.48
2022-09-05T09:16:10.947Z,22.56
2022-09-05T09:19:29.440Z,22.84
2022-09-05T09:22:39.950Z,22.84
2022-09-05T09:25:49.167Z,22.98
2022-09-05T09:28:57.668Z,22.77
2022-09-05T09:32:04.751Z,22.82
2022-09-05T09:35:14.813Z,22.98
2022-09-05T09:38:26.404Z,23.25
2022-09-05T09:41:45.264Z,23.60
2022-09-05T09:45:22.750Z,23.75
2022-09-05T09:48:53.112Z,23.81
2022-09-05T09:52:20.991Z,23.89
2022-09-05T09:55:59.911Z,24.08
2022-09-05T09:59:22.492Z,24.48
2022-09-05T10:05:47.610Z,24.40
2022-09-05T10:10:51.623Z,24.53
2022-09-05T10:10:58.569Z,24.71
2022-09-05T10:14:49.672Z,25.06
2022-09-05T10:18:25.514Z,24.89
2022-09-05T10:21:39.677Z,24.89
2022-09-05T10:25:19.635Z,25.34
2022-09-05T10:28:31.693Z,25.94
2022-09-05T10:34:23.413Z,25.85
2022-09-05T10:35:25.962Z,25.67
2022-09-05T10:38:36.095Z,25.39
2022-09-05T10:41:51.657Z,25.87
2022-09-05T10:44:55.309Z,26.32
2022-09-05T10:48:13.321Z,26.69
2022-09-05T10:51:27.809Z,26.45
2022-09-05T10:54:38.045Z,26.74
2022-09-05T10:57:53.465Z,26.88
2022-09-05T11:02:19.413Z,27.23
2022-09-05T11:04:49.730Z,27.30
2022-09-05T11:08:02.850Z,27.19
2022-09-05T11:11:26.082Z,26.96
2022-09-05T11:14:49.305Z,27.49
2022-09-05T11:17:57.927Z,27.57
2022-09-05T11:21:08.379Z,27.82
2022-09-05T11:24:27.419Z,27.94
2022-09-05T11:27:34.464Z,27.43
2022-09-05T11:30:40.657Z,27.95
2022-09-05T11:39:52.354Z,27.83
2022-09-05T11:40:06.813Z,28.11
2022-09-05T11:41:38.740Z,27.87
2022-09-05T11:44:53.752Z,28.07
2022-09-05T11:48:22.717Z,28.09
2022-09-05T11:51:48.495Z,28.17
2022-09-05T11:55:24.789Z,28.38
2022-09-05T11:58:55.506Z,28.85
2022-09-05T12:02:23.267Z,28.77
2022-09-05T12:05:48.410Z,29.25
2022-09-05T12:08:59.910Z,29.78
2022-09-05T12:12:39.392Z,29.55
2022-09-05T12:16:07.309Z,29.86
2022-09-05T12:19:23.039Z,29.78
2022-09-05T12:22:29.161Z,29.56
2022-09-05T12:27:39.352Z,30.02
2022-09-05T12:36:01.334Z,29.89
2022-09-05T12:40:40.570Z,29.86
2022-09-05T12:40:55.409Z,30.20
2022-09-05T12:41:41.810Z,30.14
2022-09-05T12:44:38.344Z,30.45
2022-09-05T12:46:35.642Z,30.17
2022-09-05T12:49:52.187Z,30.64
2022-09-05T12:53:01.893Z,30.52
2022-09-05T12:58:09.105Z,30.57
2022-09-05T13:03:03.545Z,30.58
2022-09-05T13:03:26.812Z,30.63
2022-09-05T13:06:25.993Z,31.21
2022-09-05T13:10:48.903Z,30.93
2022-09-05T13:14:55.028Z,31.06
2022-09-05T13:16:25.837Z,30.87
2022-09-05T13:19:34.321Z,31.31
2022-09-05T13:22:40.118Z,30.70
2022-09-05T13:25:58.336Z,30.96
2022-09-05T13:29:10.616Z,31.34
2022-09-05T13:38:10.811Z,31.08
2022-09-05T13:38:10.926Z,31.10
2022-09-05T13:39:32.855Z,31.64
2022-09-05T13:42:39.769Z,31.34
2022-09-05T13:46:11.453Z,30.98
2022-09-05T13:49:26.657Z,31.46
2022-09-05T13:52:35.645Z,30.95
2022-09-05T13:55:44.205Z,30.79
2022-09-05T13:58:57.181Z,31.45
2022-09-05T14:02:27.935Z,31.57
2022-09-05T14:05:37.460Z,31.38
2022-09-05T14:12:38.715Z,31.64
2022-09-05T14:15:52.237Z,32.18
2022-09-05T14:19:14.381Z,31.92
2022-09-05T14:22:35.519Z,31.40
2022-09-05T14:25:39.987Z,31.36
2022-09-05T14:28:50.184Z,31.73
2022-09-05T14:37:37.484Z,31.56
2022-09-05T14:37:49.608Z,31.31
2022-09-05T14:39:51.948Z,31.87
2022-09-05T14:43:17.511Z,31.82
2022-09-05T14:46:51.027Z,31.88
2022-09-05T14:50:06.044Z,31.93
2022-09-05T14:58:03.359Z,31.74
2022-09-05T15:02:44.573Z,31.57
2022-09-05T15:07:16.700Z,31.71
2022-09-05T15:12:14.553Z,31.73
2022-09-05T15:14:01.400Z,31.94
2022-09-05T15:17:05.719Z,32.04
2022-09-05T15:20:09.700Z,31.97
2022-09-05T15:23:28.597Z,31.63
2022-09-05T15:26:31.615Z,31.86
2022-09-05T15:29:35.228Z,31.43
2022-09-05T15:32:38.874Z,30.83
2022-09-05T15:35:44.066Z,31.31
2022-09-05T15:38:55.957Z,31.45
2022-09-05T15:42:12.828Z,31.35
2022-09-05T15:45:20.645Z,31.28
2022-09-05T15:48:26.157Z,30.98
2022-09-05T15:51:42.464Z,31.05
2022-09-05T15:54:49.626Z,30.47
2022-09-05T15:57:53.911Z,30.68
2022-09-05T16:00:55.733Z,30.79
2022-09-05T16:10:27.037Z,30.69
2022-09-05T16:10:42.219Z,30.74
2022-09-05T16:11:20.308Z,30.30
2022-09-05T16:14:13.355Z,30.47
2022-09-05T16:23:13.191Z,30.43
2022-09-05T16:23:34.728Z,30.20
2022-09-05T16:24:24.823Z,29.67
2022-09-05T16:28:00.170Z,29.75
2022-09-05T16:31:05.037Z,29.89
2022-09-05T16:34:19.914Z,29.97
2022-09-05T16:37:29.143Z,29.91
2022-09-05T16:40:38.299Z,29.92
2022-09-05T16:43:44.477Z,29.80
2022-09-05T16:47:02.486Z,29.77
2022-09-05T16:50:16.605Z,29.54
2022-09-05T16:53:30.608Z,29.45
2022-09-05T16:56:38.994Z,29.35
2022-09-05T16:59:45.625Z,29.38
2022-09-05T17:02:53.799Z,29.51
2022-09-05T17:06:05.594Z,29.32
2022-09-05T17:09:19.599Z,29.10
2022-09-05T17:12:26.663Z,28.92
2022-09-05T17:15:35.300Z,28.60
2022-09-05T17:18:38.993Z,28.53
2022-09-05T17:24:46.472Z,28.28
2022-09-05T17:29:25.248Z,28.04
2022-09-05T17:29:29.472Z,28.30
2022-09-05T17:32:19.050Z,27.77
2022-09-05T17:35:42.279Z,27.43
2022-09-05T17:39:05.881Z,27.00
2022-09-05T17:42:28.745Z,26.84
2022-09-05T17:45:45.263Z,26.46
2022-09-05T17:49:18.118Z,26.13
2022-09-05T17:52:23.230Z,25.91
2022-09-05T17:55:51.903Z,25.72
2022-09-05T17:59:05.879Z,25.36
2022-09-05T18:02:31.940Z,25.04
2022-09-05T18:06:00.952Z,24.81
2022-09-05T18:09:08.949Z,24.76
2022-09-05T18:12:31.564Z,24.60
2022-09-05T18:16:10.451Z,24.17
2022-09-05T18:20:00.143Z,24.10
2022-09-05T18:23:43.706Z,24.06
2022-09-05T18:30:24.925Z,23.84
2022-09-05T18:33:55.997Z,23.60
2022-09-05T18:36:51.385Z,23.65
2022-09-05T18:40:03.898Z,23.54
2022-09-05T18:43:14.121Z,23.40
2022-09-05T18:46:21.040Z,23.31
2022-09-05T18:50:24.604Z,23.22
2022-09-05T18:53:10.229Z,23.17
2022-09-05T18:56:30.992Z,23.19
2022-09-05T18:59:36.247Z,23.03
2022-09-05T19:02:51.502Z,22.93
2022-09-05T19:06:36.602Z,22.84
2022-09-05T19:09:31.563Z,22.76
2022-09-05T19:12:40.867Z,22.66
2022-09-05T19:16:02.283Z,22.43
2022-09-05T19:19:27.680Z,22.44
2022-09-05T19:23:02.634Z,22.48
2022-09-05T19:25:56.176Z,22.31
2022-09-05T19:36:51.850Z,22.33
2022-09-05T19:37:03.611Z,22.18
2022-09-05T19:37:05.140Z,22.17
2022-09-05T19:41:34.667Z,22.15
2022-09-05T19:47:29.585Z,21.98
2022-09-05T19:47:45.141Z,22.04
2022-09-05T19:49:32.803Z,21.89
2022-09-05T19:52:35.655Z,21.84
2022-09-05T19:55:41.817Z,21.75
2022-09-05T19:58:45.748Z,21.68
2022-09-05T20:01:48.172Z,21.62
2022-09-05T20:04:53.177Z,21.50
2022-09-05T20:07:57.378Z,21.56
2022-09-05T20:11:03.212Z,21.47
2022-09-05T20:14:18.841Z,21.20
2022-09-05T20:17:24.120Z,21.23
2022-09-05T20:20:28.231Z,21.19
2022-09-05T20:23:31.216Z,21.22
2022-09-05T20:26:34.395Z,21.21
2022-09-05T20:29:54.925Z,21.29
2022-09-05T20:33:05.170Z,21.23
2022-09-05T20:40:32.393Z,21.08
2022-09-05T20:43:28.947Z,21.00
2022-09-05T20:43:36.452Z,20.94
2022-09-05T20:49:35.186Z,20.87
2022-09-05T20:54:15.841Z,20.80
2022-09-05T20:54:22.769Z,20.81
2022-09-05T20:57:13.514Z,20.76
2022-09-05T21:00:19.369Z,20.79
2022-09-05T21:03:27.710Z,20.76
2022-09-05T21:06:33.428Z,20.65
2022-09-05T21:09:50.825Z,20.64
2022-09-05T21:12:55.590Z,20.60
2022-09-05T21:15:58.770Z,20.55
2022-09-05T21:19:02.085Z,20.60
2022-09-05T21:22:06.719Z,20.49
2022-09-05T21:25:22.556Z,20.40
2022-09-05T21:28:36.932Z,20.45
2022-09-05T21:31:44.114Z,20.30
2022-09-05T21:34:52.017Z,20.14
2022-09-05T21:37:55.694Z,20.39
2022-09-05T21:41:01.205Z,20.17
2022-09-05T21:47:37.649Z,20.39
2022-09-05T21:47:48.937Z,20.50
2022-09-05T21:50:51.372Z,20.57
2022-09-05T21:59:18.157Z,20.52
2022-09-05T21:59:28.484Z,20.66
2022-09-05T22:00:42.375Z,20.56
2022-09-05T22:03:44.550Z,20.51
2022-09-05T22:06:48.638Z,20.47
2022-09-05T22:09:50.523Z,20.60
2022-09-05T22:12:52.385Z,20.62
2022-09-05T22:15:57.029Z,20.46
2022-09-05T22:19:00.767Z,20.81
2022-09-05T22:22:15.504Z,22.19
2022-09-05T22:25:27.345Z,22.86
2022-09-05T22:28:33.498Z,23.19
2022-09-05T22:31:36.509Z,23.69
2022-09-05T22:34:38.453Z,23.82
2022-09-05T22:37:44.338Z,23.94
2022-09-05T22:40:46.144Z,23.90
2022-09-05T22:43:50.128Z,24.13
2022-09-05T22:46:52.303Z,23.98
2022-09-05T22:49:53.980Z,23.61
2022-09-05T22:52:57.064Z,23.14
2022-09-05T22:56:02.094Z,22.65
2022-09-05T22:59:05.124Z,22.45
2022-09-05T23:02:06.959Z,22.30
2022-09-05T23:05:09.518Z,22.19
2022-09-05T23:08:13.164Z,22.32
2022-09-05T23:11:16.777Z,21.91
2022-09-05T23:14:18.582Z,21.91
2022-09-05T23:17:20.313Z,21.78
2022-09-05T23:20:22.759Z,21.94
2022-09-05T23:23:25.871Z,21.61
2022-09-05T23:26:27.655Z,21.75
2022-09-05T23:29:29.414Z,21.37
2022-09-05T23:32:31.314Z,21.32
2022-09-05T23:35:33.156Z,21.17
2022-09-05T23:38:36.584Z,21.15
2022-09-05T23:41:38.257Z,21.04
2022-09-05T23:44:39.924Z,20.81
2022-09-05T23:47:41.652Z,20.93
2022-09-05T23:50:43.342Z,20.60
2022-09-05T23:53:46.730Z,20.44
2022-09-05T23:56:48.569Z,20.46
2022-09-05T23:59:52.379Z,20.31
